createdAt,value
2022-09-04T00:00:51.973Z,21.30
2022-09-04T00:03:27.105Z,21.30
2022-09-04T00:05:56.426Z,21.30
2022-09-04T00:08:42.451Z,21.30
2022-09-04T00:11:15.171Z,21.20
2022-09-04T00:13:42.056Z,21.20
2022-09-04T00:16:12.565Z,21.10
2022-09-04T00:18:55.026Z,21.10
2022-09-04T00:21:24.850Z,21.10
2022-09-04T00:23:55.714Z,21.10
2022-09-04T00:26:38.912Z,21.00
2022-09-04T00:29:26.095Z,21.00
2022-09-04T00:32:08.051Z,20.60
2022-09-04T00:34:46.083Z,20.90
2022-09-04T00:37:16.555Z,20.90
2022-09-04T00:40:09.957Z,20.80
2022-09-04T00:42:51.967Z,20.70
2022-09-04T00:45:39.082Z,20.70
2022-09-04T00:48:08.888Z,20.80
2022-09-04T00:50:56.048Z,20.70
2022-09-04T00:53:41.689Z,20.70
2022-09-04T00:56:17.530Z,20.70
2022-09-04T00:58:50.867Z,20.70
2022-09-04T01:01:22.217Z,20.70
2022-09-04T01:04:07.872Z,20.60
2022-09-04T01:06:35.648Z,20.60
2022-09-04T01:09:16.706Z,20.60
2022-09-04T01:11:50.048Z,20.50
2022-09-04T01:14:39.264Z,20.50
2022-09-04T01:17:38.521Z,20.50
2022-09-04T01:20:08.271Z,20.50
2022-09-04T01:22:45.968Z,20.40
2022-09-04T01:25:32.616Z,20.40
2022-09-04T01:28:07.138Z,20.40
2022-09-04T01:30:41.949Z,20.30
2022-09-04T01:33:27.609Z,20.30
2022-09-04T01:36:06.536Z,20.30
2022-09-04T01:38:37.704Z,20.30
2022-09-04T01:41:38.146Z,20.30
2022-09-04T01:44:10.016Z,20.30
2022-09-04T01:47:00.952Z,20.30
2022-09-04T01:49:34.045Z,20.20
2022-09-04T01:52:04.002Z,20.20
2022-09-04T01:54:37.585Z,20.20
2022-09-04T01:57:05.766Z,20.10
2022-09-04T01:59:35.498Z,20.10
2022-09-04T02:02:06.415Z,20.10
2022-09-04T02:04:33.224Z,20.10
2022-09-04T02:07:17.152Z,20.00
2022-09-04T02:10:10.084Z,20.00
2022-09-04T02:15:33.467Z,20.00
2022-09-04T02:18:11.605Z,20.00
2022-09-04T02:20:39.874Z,19.90
2022-09-04T02:23:20.873Z,19.90
2022-09-04T02:25:59.143Z,19.90
2022-09-04T02:28:29.367Z,19.80
2022-09-04T02:30:59.363Z,19.80
2022-09-04T02:33:31.956Z,19.80
2022-09-04T02:36:04.841Z,19.70
2022-09-04T02:38:43.960Z,19.70
2022-09-04T02:41:34.157Z,19.70
2022-09-04T02:44:10.570Z,19.60
2022-09-04T02:47:00.212Z,19.60
2022-09-04T02:49:36.047Z,19.50
2022-09-04T02:52:21.982Z,19.60
2022-09-04T02:55:04.193Z,19.50
2022-09-04T02:57:55.182Z,19.50
2022-09-04T03:00:31.001Z,19.50
2022-09-04T03:02:58.105Z,19.50
2022-09-04T03:05:26.564Z,19.50
2022-09-04T03:07:53.670Z,19.50
2022-09-04T03:10:24.863Z,19.50
2022-09-04T03:12:52.002Z,19.50
2022-09-04T03:15:22.658Z,19.50
2022-09-04T03:17:54.338Z,19.50
2022-09-04T03:20:23.368Z,19.50
2022-09-04T03:23:10.713Z,19.50
2022-09-04T03:25:49.536Z,19.50
2022-09-04T03:28:25.807Z,19.40
2022-09-04T03:30:54.637Z,19.50
2022-09-04T03:33:24.809Z,19.40
2022-09-04T03:35:57.799Z,19.40
2022-09-04T03:38:34.022Z,19.30
2022-09-04T03:41:04.412Z,19.40
2022-09-04T03:43:51.232Z,19.30
2022-09-04T03:46:21.192Z,19.30
2022-09-04T03:48:54.107Z,19.30
2022-09-04T03:51:25.866Z,19.40
2022-09-04T03:53:53.599Z,19.30
2022-09-04T03:56:29.521Z,19.30
2022-09-04T03:58:56.548Z,19.40
2022-09-04T04:01:42.411Z,19.40
2022-09-04T04:04:18.415Z,19.20
2022-09-04T04:06:51.822Z,19.30
2022-09-04T04:09:24.916Z,19.20
2022-09-04T04:12:15.195Z,19.30
2022-09-04T04:14:51.624Z,19.30
2022-09-04T04:17:24.659Z,19.20
2022-09-04T04:20:10.861Z,19.20
2022-09-04T04:22:45.048Z,19.20
2022-09-04T04:25:42.291Z,19.10
2022-09-04T04:28:24.294Z,19.20
2022-09-04T04:30:52.631Z,19.20
2022-09-04T04:33:25.615Z,19.10
2022-09-04T04:36:13.194Z,19.10
2022-09-04T04:38:47.782Z,19.00
2022-09-04T04:41:21.483Z,19.00
2022-09-04T04:43:56.885Z,19.00
2022-09-04T04:46:34.875Z,19.00
2022-09-04T04:49:13.233Z,19.00
2022-09-04T04:51:43.044Z,19.00
2022-09-04T04:54:17.373Z,18.90
2022-09-04T04:56:48.828Z,18.90
2022-09-04T04:59:23.550Z,18.90
2022-09-04T05:01:59.036Z,18.70
2022-09-04T05:04:30.093Z,18.90
2022-09-04T05:07:02.120Z,19.00
2022-09-04T05:09:34.806Z,19.00
2022-09-04T05:12:07.827Z,19.00
2022-09-04T05:14:54.323Z,19.00
2022-09-04T05:17:40.611Z,18.80
2022-09-04T05:20:20.087Z,19.00
2022-09-04T05:22:46.857Z,19.00
2022-09-04T05:25:16.376Z,19.00
2022-09-04T05:27:56.943Z,19.00
2022-09-04T05:30:33.680Z,19.00
2022-09-04T05:33:00.776Z,19.10
2022-09-04T05:35:36.720Z,19.10
2022-09-04T05:38:08.872Z,19.10
2022-09-04T05:40:48.094Z,19.10
2022-09-04T05:43:33.797Z,19.10
2022-09-04T05:46:05.317Z,19.00
2022-09-04T05:48:38.156Z,19.10
2022-09-04T05:51:08.619Z,19.10
2022-09-04T05:53:50.468Z,19.10
2022-09-04T05:56:20.295Z,19.20
2022-09-04T05:59:06.009Z,19.20
2022-09-04T06:01:36.268Z,19.20
2022-09-04T06:04:22.215Z,19.30
2022-09-04T06:07:01.230Z,19.30
2022-09-04T06:09:47.078Z,19.30
2022-09-04T06:12:24.769Z,19.30
2022-09-04T06:14:57.226Z,19.40
2022-09-04T06:17:55.352Z,19.40
2022-09-04T06:20:31.217Z,19.50
2022-09-04T06:23:03.028Z,19.60
2022-09-04T06:25:56.767Z,19.60
2022-09-04T06:28:29.797Z,19.70
2022-09-04T06:31:02.934Z,19.80
2022-09-04T06:33:36.280Z,19.80
2022-09-04T06:36:06.434Z,19.90
2022-09-04T06:38:33.251Z,19.90
2022-09-04T06:41:18.832Z,19.90
2022-09-04T06:44:15.046Z,20.00
2022-09-04T06:46:44.770Z,20.10
2022-09-04T06:49:24.138Z,20.30
2022-09-04T06:52:07.615Z,20.20
2022-09-04T06:54:58.510Z,20.30
2022-09-04T06:57:29.192Z,20.40
2022-09-04T07:00:01.703Z,20.50
2022-09-04T07:02:50.502Z,20.60
2022-09-04T07:05:20.288Z,20.70
2022-09-04T07:07:51.976Z,20.80
2022-09-04T07:10:38.583Z,20.90
2022-09-04T07:13:11.579Z,21.00
2022-09-04T07:15:57.390Z,21.10
2022-09-04T07:18:30.681Z,21.10
2022-09-04T07:21:00.765Z,21.20
2022-09-04T07:23:32.741Z,21.30
2022-09-04T07:26:03.626Z,21.40
2022-09-04T07:28:48.948Z,21.40
2022-09-04T07:31:22.969Z,21.50
2022-09-04T07:34:13.955Z,21.50
2022-09-04T07:36:46.496Z,21.60
2022-09-04T07:39:23.512Z,21.60
2022-09-04T07:41:53.523Z,21.60
2022-09-04T07:44:31.678Z,21.70
2022-09-04T07:47:00.233Z,21.80
2022-09-04T07:49:27.190Z,21.90
2022-09-04T07:52:16.767Z,21.90
2022-09-04T07:54:46.922Z,21.90
2022-09-04T07:57:23.548Z,22.00
2022-09-04T08:00:07.101Z,22.00
2022-09-04T08:02:58.906Z,22.10
2022-09-04T08:05:31.820Z,22.10
2022-09-04T08:08:07.278Z,22.20
2022-09-04T08:10:40.391Z,22.20
2022-09-04T08:13:18.423Z,22.30
2022-09-04T08:16:05.824Z,22.40
2022-09-04T08:18:45.061Z,22.40
2022-09-04T08:21:24.104Z,22.40
2022-09-04T08:24:04.440Z,22.50
2022-09-04T08:26:44.509Z,22.50
2022-09-04T08:29:26.668Z,22.60
2022-09-04T08:31:55.408Z,22.70
2022-09-04T08:34:28.312Z,22.80
2022-09-04T08:36:55.300Z,22.90
2022-09-04T08:39:31.499Z,22.90
2022-09-04T08:41:58.413Z,23.00
2022-09-04T08:44:34.244Z,23.10
2022-09-04T08:47:21.308Z,23.10
2022-09-04T08:49:54.052Z,23.20
2022-09-04T08:52:20.879Z,23.20
2022-09-04T08:55:07.312Z,23.20
2022-09-04T08:57:40.585Z,23.00
2022-09-04T09:00:13.626Z,23.30
2022-09-04T09:02:59.300Z,23.40
2022-09-04T09:05:44.977Z,23.40
2022-09-04T09:08:38.247Z,23.50
2022-09-04T09:11:12.497Z,23.50
2022-09-04T09:13:58.708Z,23.40
2022-09-04T09:16:31.255Z,23.60
2022-09-04T09:19:11.944Z,23.70
2022-09-04T09:21:38.788Z,23.80
2022-09-04T09:24:23.681Z,23.80
2022-09-04T09:26:57.647Z,23.80
2022-09-04T09:29:53.927Z,24.00
2022-09-04T09:32:29.990Z,24.10
2022-09-04T09:35:09.075Z,24.20
2022-09-04T09:37:57.540Z,24.20
2022-09-04T09:40:31.798Z,24.30
2022-09-04T09:43:26.876Z,24.30
2022-09-04T09:46:03.505Z,24.40
2022-09-04T09:48:49.305Z,24.50
2022-09-04T09:51:19.159Z,24.50
2022-09-04T09:54:13.417Z,24.60
2022-09-04T09:57:06.791Z,24.60
2022-09-04T09:59:34.467Z,24.80
2022-09-04T10:02:13.417Z,24.80
2022-09-04T10:04:53.115Z,24.90
2022-09-04T10:07:38.898Z,24.90
2022-09-04T10:10:18.064Z,25.00
2022-09-04T10:13:03.675Z,25.10
2022-09-04T10:15:53.917Z,25.10
2022-09-04T10:18:27.718Z,25.10
2022-09-04T10:21:13.292Z,25.10
2022-09-04T10:23:46.208Z,25.20
2022-09-04T10:26:31.879Z,25.20
2022-09-04T10:29:10.984Z,25.30
2022-09-04T10:31:56.978Z,25.30
2022-09-04T10:34:37.010Z,25.30
2022-09-04T10:37:10.342Z,25.40
2022-09-04T10:40:15.029Z,25.50
2022-09-04T10:43:02.333Z,25.40
2022-09-04T10:45:39.470Z,25.40
2022-09-04T10:48:15.635Z,25.50
2022-09-04T10:51:08.774Z,25.40
2022-09-04T10:53:44.797Z,25.50
2022-09-04T10:56:30.465Z,25.50
2022-09-04T10:58:57.398Z,25.60
2022-09-04T11:01:30.172Z,25.70
2022-09-04T11:04:13.232Z,25.90
2022-09-04T11:06:58.522Z,25.90
2022-09-04T11:09:43.411Z,26.00
2022-09-04T11:12:25.577Z,26.10
2022-09-04T11:14:58.538Z,26.20
2022-09-04T11:17:42.817Z,26.30
2022-09-04T11:20:28.573Z,26.30
2022-09-04T11:23:14.212Z,26.40
2022-09-04T11:25:48.076Z,26.40
2022-09-04T11:28:20.749Z,26.40
2022-09-04T11:30:59.197Z,26.60
2022-09-04T11:33:37.512Z,26.60
2022-09-04T11:36:19.017Z,26.80
2022-09-04T11:39:03.515Z,26.90
2022-09-04T11:41:44.951Z,27.10
2022-09-04T11:44:22.283Z,27.20
2022-09-04T11:47:16.212Z,27.30
2022-09-04T11:50:02.251Z,27.40
2022-09-04T11:52:35.575Z,27.50
2022-09-04T11:55:35.120Z,27.60
2022-09-04T11:58:11.438Z,27.80
2022-09-04T12:00:44.968Z,27.80
2022-09-04T12:03:41.551Z,28.00
2022-09-04T12:06:14.034Z,28.00
2022-09-04T12:08:58.469Z,28.20
2022-09-04T12:11:36.169Z,28.30
2022-09-04T12:14:08.321Z,28.50
2022-09-04T12:16:52.514Z,28.60
2022-09-04T12:19:29.511Z,28.80
2022-09-04T12:22:15.482Z,28.80
2022-09-04T12:24:51.437Z,29.00
2022-09-04T12:27:37.874Z,29.00
2022-09-04T12:30:08.167Z,29.10
2022-09-04T12:32:44.439Z,29.30
2022-09-04T12:35:11.292Z,29.50
2022-09-04T12:37:47.444Z,29.60
2022-09-04T12:40:24.597Z,29.70
2022-09-04T12:42:51.597Z,29.80
2022-09-04T12:45:29.738Z,30.00
2022-09-04T12:47:57.584Z,30.10
2022-09-04T12:50:40.276Z,30.20
2022-09-04T12:53:26.125Z,30.10
2022-09-04T12:56:12.685Z,30.30
2022-09-04T12:58:59.497Z,30.10
2022-09-04T13:01:41.591Z,30.60
2022-09-04T13:04:11.850Z,30.60
2022-09-04T13:06:42.049Z,30.80
2022-09-04T13:09:35.526Z,30.80
2022-09-04T13:12:15.958Z,31.00
2022-09-04T13:14:53.227Z,31.10
2022-09-04T13:17:43.754Z,31.30
2022-09-04T13:20:26.078Z,31.30
2022-09-04T13:23:19.140Z,31.60
2022-09-04T13:25:55.128Z,31.50
2022-09-04T13:28:30.445Z,31.50
2022-09-04T13:31:17.439Z,31.60
2022-09-04T13:34:03.210Z,31.60
2022-09-04T13:36:49.772Z,31.80
2022-09-04T13:39:25.980Z,31.80
2022-09-04T13:42:01.027Z,31.70
2022-09-04T13:44:38.322Z,31.80
2022-09-04T13:47:09.173Z,32.20
2022-09-04T13:49:42.973Z,31.90
2022-09-04T13:52:15.597Z,32.00
2022-09-04T13:54:46.305Z,32.10
2022-09-04T13:57:27.968Z,32.20
2022-09-04T13:59:59.256Z,32.30
2022-09-04T14:02:27.617Z,32.30
2022-09-04T14:04:56.486Z,32.30
2022-09-04T14:07:40.571Z,32.40
2022-09-04T14:10:31.418Z,32.50
2022-09-04T14:13:28.461Z,32.70
2022-09-04T14:16:03.916Z,33.10
2022-09-04T14:18:49.987Z,32.80
2022-09-04T14:21:32.004Z,32.60
2022-09-04T14:23:58.819Z,32.90
2022-09-04T14:26:41.200Z,32.90
2022-09-04T14:29:24.667Z,33.00
2022-09-04T14:32:10.803Z,32.70
2022-09-04T14:34:41.106Z,33.10
2022-09-04T14:37:36.176Z,33.40
2022-09-04T14:40:03.740Z,33.10
2022-09-04T14:42:30.635Z,33.10
2022-09-04T14:45:03.874Z,33.20
2022-09-04T14:47:39.765Z,33.30
2022-09-04T14:50:09.954Z,33.40
2022-09-04T14:52:47.462Z,33.50
2022-09-04T14:55:16.370Z,33.70
2022-09-04T14:57:55.307Z,33.80
2022-09-04T15:00:23.531Z,34.00
2022-09-04T15:03:08.619Z,33.80
2022-09-04T15:05:56.852Z,34.20
2022-09-04T15:08:29.131Z,34.20
2022-09-04T15:11:00.850Z,34.20
2022-09-04T15:13:27.801Z,34.10
2022-09-04T15:15:55.452Z,34.20
2022-09-04T15:18:24.584Z,34.20
2022-09-04T15:20:57.148Z,34.20
2022-09-04T15:23:41.134Z,34.30
2022-09-04T15:26:11.659Z,34.30
2022-09-04T15:28:54.775Z,34.40
2022-09-04T15:31:29.100Z,34.60
2022-09-04T15:34:01.285Z,34.70
2022-09-04T15:36:29.547Z,34.70
2022-09-04T15:38:57.834Z,34.80
2022-09-04T15:41:43.751Z,34.80
2022-09-04T15:44:20.047Z,34.90
2022-09-04T15:47:01.269Z,34.90
2022-09-04T15:49:49.654Z,34.80
2022-09-04T15:52:25.762Z,34.80
2022-09-04T15:55:11.150Z,34.70
2022-09-04T15:57:46.567Z,34.70
2022-09-04T16:00:15.676Z,34.60
2022-09-04T16:02:51.642Z,34.40
2022-09-04T16:05:24.073Z,34.10
2022-09-04T16:08:05.921Z,33.70
2022-09-04T16:10:44.517Z,33.40
2022-09-04T16:13:38.082Z,33.00
2022-09-04T16:16:08.298Z,32.40
2022-09-04T16:18:38.374Z,32.20
2022-09-04T16:21:18.505Z,31.70
2022-09-04T16:23:47.045Z,31.60
2022-09-04T16:26:19.408Z,31.30
2022-09-04T16:28:51.544Z,31.00
2022-09-04T16:31:34.703Z,30.80
2022-09-04T16:34:28.236Z,30.50
2022-09-04T16:37:02.028Z,30.30
2022-09-04T16:39:37.259Z,30.10
2022-09-04T16:42:16.507Z,30.00
2022-09-04T16:44:46.805Z,29.80
2022-09-04T16:47:13.741Z,29.70
2022-09-04T16:49:40.903Z,29.70
2022-09-04T16:52:22.632Z,29.40
2022-09-04T16:54:55.165Z,29.30
2022-09-04T16:57:27.778Z,29.20
2022-09-04T17:00:09.389Z,28.80
2022-09-04T17:02:42.357Z,28.90
2022-09-04T17:05:19.584Z,28.70
2022-09-04T17:07:59.084Z,28.50
2022-09-04T17:10:26.404Z,28.40
2022-09-04T17:13:02.991Z,28.20
2022-09-04T17:15:53.636Z,28.10
2022-09-04T17:18:23.377Z,28.00
2022-09-04T17:23:39.265Z,27.90
2022-09-04T17:29:03.380Z,27.70
2022-09-04T17:29:04.367Z,27.80
2022-09-04T17:29:37.172Z,27.60
2022-09-04T17:33:46.138Z,27.50
2022-09-04T17:40:43.887Z,27.50
2022-09-04T17:40:47.636Z,27.40
2022-09-04T17:41:39.508Z,27.30
2022-09-04T17:44:29.239Z,27.30
2022-09-04T17:46:59.649Z,27.20
2022-09-04T17:49:34.519Z,27.10
2022-09-04T17:52:09.359Z,27.10
2022-09-04T17:54:41.524Z,27.10
2022-09-04T17:57:15.300Z,27.00
2022-09-04T17:59:49.466Z,27.00
2022-09-04T18:02:19.625Z,27.00
2022-09-04T18:04:53.839Z,27.20
2022-09-04T18:08:07.520Z,26.80
2022-09-04T18:10:17.518Z,26.80
2022-09-04T18:13:05.186Z,26.80
2022-09-04T18:15:41.467Z,26.70
2022-09-04T18:18:12.428Z,26.60
2022-09-04T18:20:51.580Z,26.60
2022-09-04T18:23:19.404Z,26.60
2022-09-04T18:25:56.496Z,26.50
2022-09-04T18:28:49.956Z,26.50
2022-09-04T18:37:06.173Z,26.40
2022-09-04T18:37:17.022Z,26.50
2022-09-04T18:37:44.377Z,26.40
2022-09-04T18:40:04.988Z,26.50
2022-09-04T18:50:25.371Z,26.40
2022-09-04T18:50:34.958Z,26.30
2022-09-04T18:50:37.750Z,26.40
2022-09-04T18:51:32.021Z,26.30
2022-09-04T18:54:20.439Z,26.20
2022-09-04T18:56:50.378Z,26.30
2022-09-04T18:59:18.387Z,26.20
2022-09-04T19:01:50.583Z,26.20
2022-09-04T19:04:32.888Z,26.10
2022-09-04T19:07:06.853Z,26.00
2022-09-04T19:09:49.827Z,26.00
2022-09-04T19:12:49.393Z,26.00
2022-09-04T19:15:37.718Z,26.00
2022-09-04T19:18:28.160Z,25.90
2022-09-04T19:21:14.682Z,25.90
2022-09-04T19:23:41.778Z,25.80
2022-09-04T19:26:28.586Z,25.70
2022-09-04T19:29:14.409Z,25.60
2022-09-04T19:31:57.002Z,25.60
2022-09-04T19:34:28.717Z,25.50
2022-09-04T19:37:02.244Z,25.20
2022-09-04T19:46:03.889Z,25.30
2022-09-04T19:46:09.601Z,25.30
2022-09-04T19:46:25.774Z,25.30
2022-09-04T19:48:38.059Z,25.20
2022-09-04T19:53:30.915Z,25.20
2022-09-04T19:54:19.727Z,25.20
2022-09-04T19:57:33.014Z,25.20
2022-09-04T19:59:45.985Z,25.10
2022-09-04T20:02:19.203Z,25.00
2022-09-04T20:04:50.624Z,25.00
2022-09-04T20:07:41.293Z,24.90
2022-09-04T20:10:17.157Z,24.80
2022-09-04T20:12:50.703Z,24.80
2022-09-04T20:15:27.004Z,24.90
2022-09-04T20:18:11.959Z,24.80
2022-09-04T20:20:58.264Z,24.80
2022-09-04T20:23:34.051Z,24.80
2022-09-04T20:26:06.283Z,24.80
2022-09-04T20:28:52.924Z,24.80
2022-09-04T20:31:36.091Z,24.70
2022-09-04T20:34:16.231Z,24.80
2022-09-04T20:36:49.545Z,24.70
2022-09-04T20:39:23.928Z,24.70
2022-09-04T20:42:45.998Z,24.70
2022-09-04T20:52:52.230Z,24.70
2022-09-04T20:52:56.434Z,24.70
2022-09-04T20:54:28.465Z,24.60
2022-09-04T21:00:50.149Z,24.60
2022-09-04T21:03:12.165Z,24.60
2022-09-04T21:03:23.239Z,24.40
2022-09-04T21:05:57.000Z,24.50
2022-09-04T21:08:51.146Z,24.50
2022-09-04T21:11:39.432Z,24.50
2022-09-04T21:14:13.573Z,24.40
2022-09-04T21:16:40.582Z,24.40
2022-09-04T21:19:29.608Z,24.30
2022-09-04T21:22:24.457Z,24.30
2022-09-04T21:25:06.351Z,24.30
2022-09-04T21:27:39.422Z,24.20
2022-09-04T21:30:14.104Z,24.20
2022-09-04T21:32:43.937Z,24.20
2022-09-04T21:35:30.775Z,24.10
2022-09-04T21:38:17.994Z,24.00
2022-09-04T21:40:51.727Z,24.00
2022-09-04T21:43:25.627Z,24.00
2022-09-04T21:46:22.087Z,23.90
2022-09-04T21:49:08.309Z,23.90
2022-09-04T21:51:38.355Z,23.90
2022-09-04T21:54:38.171Z,23.80
2022-09-04T22:02:37.797Z,23.80
2022-09-04T22:02:39.062Z,23.80
2022-09-04T22:03:19.437Z,23.80
2022-09-04T22:06:03.986Z,23.70
2022-09-04T22:13:27.332Z,23.70
2022-09-04T22:13:42.099Z,23.60
2022-09-04T22:14:26.162Z,23.60
2022-09-04T22:17:03.244Z,23.50
2022-09-04T22:19:48.904Z,23.50
2022-09-04T22:22:18.900Z,23.50
2022-09-04T22:24:51.851Z,23.40
2022-09-04T22:27:30.969Z,23.40
2022-09-04T22:30:07.727Z,23.30
2022-09-04T22:32:34.532Z,23.20
2022-09-04T22:35:20.247Z,23.20
2022-09-04T22:37:47.095Z,23.10
2022-09-04T22:40:26.153Z,23.10
2022-09-04T22:43:05.131Z,22.70
2022-09-04T22:45:47.472Z,23.00
2022-09-04T22:48:33.223Z,23.00
2022-09-04T22:51:03.646Z,23.00
2022-09-04T22:53:48.842Z,22.90
2022-09-04T22:56:27.917Z,22.90
2022-09-04T22:58:55.592Z,22.80
2022-09-04T23:01:47.287Z,22.80
2022-09-04T23:04:23.447Z,23.10
2022-09-04T23:12:45.877Z,22.70
2022-09-04T23:13:47.120Z,22.60
2022-09-04T23:13:48.526Z,22.50
2022-09-04T23:16:26.238Z,22.50
2022-09-04T23:26:35.090Z,22.40
2022-09-04T23:26:42.362Z,22.30
2022-09-04T23:26:50.540Z,22.40
2022-09-04T23:27:46.175Z,22.30
2022-09-04T23:30:26.890Z,22.30
2022-09-04T23:33:32.948Z,22.20
2022-09-04T23:36:28.382Z,22.30
2022-09-04T23:39:09.688Z,22.30
2022-09-04T23:41:52.929Z,22.30
2022-09-04T23:44:29.265Z,22.20
2022-09-04T23:47:05.727Z,22.20
2022-09-04T23:49:51.760Z,22.20
2022-09-04T23:52:29.568Z,22.20
2022-09-04T23:55:05.936Z,22.10
2022-09-04T23:57:44.626Z,22.10
